sensor_id;sensor_type;location;lat;lon;timestamp;P1;durP1;ratioP1;P2;durP2;ratioP2
54139;SDS011;40046;53.254;5.900;2023-12-20T00:01:41;14.23;;;2.08;;
54139;SDS011;40046;53.254;5.900;2023-12-20T00:04:07;23.45;;;3.05;;
54139;SDS011;40046;53.254;5.900;2023-12-20T00:06:33;16.17;;;3.13;;
54139;SDS011;40046;53.254;5.900;2023-12-20T00:08:59;22.15;;;3.22;;
54139;SDS011;40046;53.254;5.900;2023-12-20T00:11:25;15.50;;;2.00;;
54139;SDS011;40046;53.254;5.900;2023-12-20T00:13:51;23.08;;;3.35;;
54139;SDS011;40046;53.254;5.900;2023-12-20T00:16:18;16.98;;;2.28;;
54139;SDS011;40046;53.254;5.900;2023-12-20T00:18:44;26.05;;;3.17;;
54139;SDS011;40046;53.254;5.900;2023-12-20T00:21:10;15.93;;;2.08;;
54139;SDS011;40046;53.254;5.900;2023-12-20T00:23:36;25.80;;;5.15;;
54139;SDS011;40046;53.254;5.900;2023-12-20T00:26:03;19.83;;;3.60;;
54139;SDS011;40046;53.254;5.900;2023-12-20T00:28:29;21.85;;;3.45;;
54139;SDS011;40046;53.254;5.900;2023-12-20T00:30:55;21.80;;;3.10;;
54139;SDS011;40046;53.254;5.900;2023-12-20T00:33:21;20.55;;;3.38;;
54139;SDS011;40046;53.254;5.900;2023-12-20T00:35:47;17.80;;;2.92;;
54139;SDS011;40046;53.254;5.900;2023-12-20T00:38:13;18.52;;;3.90;;
54139;SDS011;40046;53.254;5.900;2023-12-20T00:40:40;22.27;;;3.50;;
54139;SDS011;40046;53.254;5.900;2023-12-20T00:43:06;17.25;;;3.53;;
54139;SDS011;40046;53.254;5.900;2023-12-20T00:45:32;20.52;;;3.58;;
54139;SDS011;40046;53.254;5.900;2023-12-20T00:47:58;29.88;;;5.13;;
54139;SDS011;40046;53.254;5.900;2023-12-20T00:50:24;18.88;;;3.22;;
54139;SDS011;40046;53.254;5.900;2023-12-20T00:52:50;16.45;;;3.58;;
54139;SDS011;40046;53.254;5.900;2023-12-20T00:55:17;14.65;;;3.15;;
54139;SDS011;40046;53.254;5.900;2023-12-20T00:57:43;21.55;;;4.22;;
54139;SDS011;40046;53.254;5.900;2023-12-20T01:00:09;18.42;;;2.83;;
54139;SDS011;40046;53.254;5.900;2023-12-20T01:02:35;24.30;;;4.53;;
54139;SDS011;40046;53.254;5.900;2023-12-20T01:05:01;22.85;;;4.22;;
54139;SDS011;40046;53.254;5.900;2023-12-20T01:07:28;14.45;;;2.88;;
54139;SDS011;40046;53.254;5.900;2023-12-20T01:09:54;21.63;;;3.45;;
54139;SDS011;40046;53.254;5.900;2023-12-20T01:12:20;25.17;;;4.07;;
54139;SDS011;40046;53.254;5.900;2023-12-20T01:14:46;21.13;;;4.60;;
54139;SDS011;40046;53.254;5.900;2023-12-20T01:17:12;20.67;;;3.22;;
54139;SDS011;40046;53.254;5.900;2023-12-20T01:19:38;13.98;;;2.90;;
54139;SDS011;40046;53.254;5.900;2023-12-20T01:22:04;19.98;;;4.38;;
54139;SDS011;40046;53.254;5.900;2023-12-20T01:24:30;14.95;;;2.22;;
54139;SDS011;40046;53.254;5.900;2023-12-20T01:26:57;22.88;;;3.58;;
54139;SDS011;40046;53.254;5.900;2023-12-20T01:29:23;14.00;;;3.25;;
54139;SDS011;40046;53.254;5.900;2023-12-20T01:31:49;21.33;;;3.67;;
54139;SDS011;40046;53.254;5.900;2023-12-20T01:34:15;25.48;;;7.05;;
54139;SDS011;40046;53.254;5.900;2023-12-20T01:36:42;30.08;;;3.33;;
54139;SDS011;40046;53.254;5.900;2023-12-20T01:39:08;29.65;;;3.75;;
54139;SDS011;40046;53.254;5.900;2023-12-20T01:41:34;22.00;;;3.90;;
54139;SDS011;40046;53.254;5.900;2023-12-20T01:44:00;33.47;;;5.05;;
54139;SDS011;40046;53.254;5.900;2023-12-20T01:46:26;20.40;;;4.05;;
54139;SDS011;40046;53.254;5.900;2023-12-20T01:48:52;28.58;;;4.97;;
54139;SDS011;40046;53.254;5.900;2023-12-20T01:51:19;29.20;;;5.18;;
54139;SDS011;40046;53.254;5.900;2023-12-20T01:53:46;20.92;;;6.15;;
54139;SDS011;40046;53.254;5.900;2023-12-20T01:56:12;31.40;;;4.65;;
54139;SDS011;40046;53.254;5.900;2023-12-20T01:58:41;26.50;;;5.25;;
54139;SDS011;40046;53.254;5.900;2023-12-20T02:01:08;29.50;;;4.85;;
54139;SDS011;40046;53.254;5.900;2023-12-20T02:03:35;29.95;;;5.22;;
54139;SDS011;40046;53.254;5.900;2023-12-20T02:06:02;34.17;;;7.25;;
54139;SDS011;40046;53.254;5.900;2023-12-20T02:08:28;23.98;;;4.13;;
54139;SDS011;40046;53.254;5.900;2023-12-20T02:10:55;29.48;;;5.70;;
54139;SDS011;40046;53.254;5.900;2023-12-20T02:13:21;27.33;;;5.07;;
54139;SDS011;40046;53.254;5.900;2023-12-20T02:15:47;26.85;;;5.10;;
54139;SDS011;40046;53.254;5.900;2023-12-20T02:18:13;33.50;;;4.70;;
54139;SDS011;40046;53.254;5.900;2023-12-20T02:20:41;26.42;;;5.95;;
54139;SDS011;40046;53.254;5.900;2023-12-20T02:23:08;20.70;;;5.00;;
54139;SDS011;40046;53.254;5.900;2023-12-20T02:25:34;33.28;;;5.07;;
54139;SDS011;40046;53.254;5.900;2023-12-20T02:28:00;21.48;;;4.90;;
54139;SDS011;40046;53.254;5.900;2023-12-20T02:30:26;34.78;;;5.72;;
54139;SDS011;40046;53.254;5.900;2023-12-20T02:32:52;26.60;;;5.50;;
54139;SDS011;40046;53.254;5.900;2023-12-20T02:35:19;29.27;;;7.68;;
54139;SDS011;40046;53.254;5.900;2023-12-20T02:37:45;34.10;;;5.22;;
54139;SDS011;40046;53.254;5.900;2023-12-20T02:40:11;25.73;;;5.43;;
54139;SDS011;40046;53.254;5.900;2023-12-20T02:42:37;29.20;;;5.38;;
54139;SDS011;40046;53.254;5.900;2023-12-20T02:45:04;31.38;;;5.20;;
54139;SDS011;40046;53.254;5.900;2023-12-20T02:47:30;28.45;;;4.43;;
54139;SDS011;40046;53.254;5.900;2023-12-20T02:49:56;23.27;;;5.35;;
54139;SDS011;40046;53.254;5.900;2023-12-20T02:52:23;30.40;;;6.88;;
54139;SDS011;40046;53.254;5.900;2023-12-20T02:54:49;22.95;;;4.07;;
54139;SDS011;40046;53.254;5.900;2023-12-20T02:57:15;25.63;;;4.63;;
54139;SDS011;40046;53.254;5.900;2023-12-20T02:59:41;25.30;;;4.07;;
54139;SDS011;40046;53.254;5.900;2023-12-20T03:02:08;26.27;;;4.85;;
54139;SDS011;40046;53.254;5.900;2023-12-20T03:04:34;33.03;;;5.15;;
54139;SDS011;40046;53.254;5.900;2023-12-20T03:07:00;31.02;;;6.75;;
54139;SDS011;40046;53.254;5.900;2023-12-20T03:09:26;24.52;;;4.80;;
54139;SDS011;40046;53.254;5.900;2023-12-20T03:11:52;20.08;;;3.70;;
54139;SDS011;40046;53.254;5.900;2023-12-20T03:14:18;29.85;;;4.82;;
54139;SDS011;40046;53.254;5.900;2023-12-20T03:16:50;28.05;;;5.38;;
54139;SDS011;40046;53.254;5.900;2023-12-20T03:19:17;27.70;;;6.10;;
54139;SDS011;40046;53.254;5.900;2023-12-20T03:21:46;24.90;;;4.45;;
54139;SDS011;40046;53.254;5.900;2023-12-20T03:24:13;31.27;;;5.75;;
54139;SDS011;40046;53.254;5.900;2023-12-20T03:26:39;31.25;;;5.53;;
54139;SDS011;40046;53.254;5.900;2023-12-20T03:29:05;26.00;;;4.28;;
54139;SDS011;40046;53.254;5.900;2023-12-20T03:31:31;28.88;;;4.82;;
54139;SDS011;40046;53.254;5.900;2023-12-20T03:33:57;30.20;;;6.20;;
54139;SDS011;40046;53.254;5.900;2023-12-20T03:36:23;34.13;;;6.03;;
54139;SDS011;40046;53.254;5.900;2023-12-20T03:38:49;29.75;;;5.25;;
54139;SDS011;40046;53.254;5.900;2023-12-20T03:41:15;26.90;;;6.85;;
54139;SDS011;40046;53.254;5.900;2023-12-20T03:43:41;28.85;;;4.95;;
54139;SDS011;40046;53.254;5.900;2023-12-20T03:46:08;30.23;;;5.82;;
54139;SDS011;40046;53.254;5.900;2023-12-20T03:48:34;29.65;;;4.72;;
54139;SDS011;40046;53.254;5.900;2023-12-20T03:51:00;31.92;;;5.18;;
54139;SDS011;40046;53.254;5.900;2023-12-20T03:53:27;36.17;;;5.25;;
54139;SDS011;40046;53.254;5.900;2023-12-20T03:55:53;33.03;;;4.57;;
54139;SDS011;40046;53.254;5.900;2023-12-20T03:58:19;21.75;;;5.40;;
54139;SDS011;40046;53.254;5.900;2023-12-20T04:00:45;36.72;;;6.95;;
54139;SDS011;40046;53.254;5.900;2023-12-20T04:03:11;25.50;;;6.25;;
54139;SDS011;40046;53.254;5.900;2023-12-20T04:05:40;23.38;;;4.32;;
54139;SDS011;40046;53.254;5.900;2023-12-20T04:08:07;24.98;;;4.32;;
54139;SDS011;40046;53.254;5.900;2023-12-20T04:10:33;24.55;;;4.85;;
54139;SDS011;40046;53.254;5.900;2023-12-20T04:12:59;28.50;;;4.82;;
54139;SDS011;40046;53.254;5.900;2023-12-20T04:15:26;29.40;;;6.13;;
54139;SDS011;40046;53.254;5.900;2023-12-20T04:17:52;18.95;;;4.03;;
54139;SDS011;40046;53.254;5.900;2023-12-20T04:20:18;25.67;;;6.05;;
54139;SDS011;40046;53.254;5.900;2023-12-20T04:22:44;33.35;;;5.60;;
54139;SDS011;40046;53.254;5.900;2023-12-20T04:25:10;27.75;;;4.90;;
54139;SDS011;40046;53.254;5.900;2023-12-20T04:27:36;30.27;;;5.85;;
54139;SDS011;40046;53.254;5.900;2023-12-20T04:30:02;33.72;;;6.50;;
54139;SDS011;40046;53.254;5.900;2023-12-20T04:32:29;28.80;;;5.68;;
54139;SDS011;40046;53.254;5.900;2023-12-20T04:34:55;27.83;;;5.43;;
54139;SDS011;40046;53.254;5.900;2023-12-20T04:37:21;28.05;;;6.30;;
54139;SDS011;40046;53.254;5.900;2023-12-20T04:39:47;35.97;;;7.32;;
54139;SDS011;40046;53.254;5.900;2023-12-20T04:42:13;25.05;;;4.85;;
54139;SDS011;40046;53.254;5.900;2023-12-20T04:44:39;34.78;;;5.63;;
54139;SDS011;40046;53.254;5.900;2023-12-20T04:47:06;29.63;;;7.10;;
54139;SDS011;40046;53.254;5.900;2023-12-20T04:49:32;23.65;;;4.82;;
54139;SDS011;40046;53.254;5.900;2023-12-20T04:54:55;29.35;;;5.95;;
54139;SDS011;40046;53.254;5.900;2023-12-20T04:57:21;35.22;;;5.85;;
54139;SDS011;40046;53.254;5.900;2023-12-20T04:59:47;29.42;;;7.22;;
54139;SDS011;40046;53.254;5.900;2023-12-20T05:02:14;22.85;;;4.07;;
54139;SDS011;40046;53.254;5.900;2023-12-20T05:04:40;26.58;;;5.95;;
54139;SDS011;40046;53.254;5.900;2023-12-20T05:07:06;25.20;;;4.60;;
54139;SDS011;40046;53.254;5.900;2023-12-20T05:09:32;27.80;;;6.05;;
54139;SDS011;40046;53.254;5.900;2023-12-20T05:11:58;25.77;;;4.63;;
54139;SDS011;40046;53.254;5.900;2023-12-20T05:14:25;31.95;;;5.25;;
54139;SDS011;40046;53.254;5.900;2023-12-20T05:16:51;31.85;;;5.70;;
54139;SDS011;40046;53.254;5.900;2023-12-20T05:19:17;24.42;;;4.95;;
54139;SDS011;40046;53.254;5.900;2023-12-20T05:21:43;33.55;;;6.47;;
54139;SDS011;40046;53.254;5.900;2023-12-20T05:24:10;31.92;;;6.30;;
54139;SDS011;40046;53.254;5.900;2023-12-20T05:26:36;38.55;;;5.40;;
54139;SDS011;40046;53.254;5.900;2023-12-20T05:29:02;30.75;;;7.80;;
54139;SDS011;40046;53.254;5.900;2023-12-20T05:31:28;42.50;;;7.55;;
54139;SDS011;40046;53.254;5.900;2023-12-20T05:33:54;32.50;;;6.03;;
54139;SDS011;40046;53.254;5.900;2023-12-20T05:36:20;32.45;;;4.82;;
54139;SDS011;40046;53.254;5.900;2023-12-20T05:38:46;31.17;;;5.97;;
54139;SDS011;40046;53.254;5.900;2023-12-20T05:41:13;35.15;;;6.80;;
54139;SDS011;40046;53.254;5.900;2023-12-20T05:43:39;25.45;;;4.93;;
54139;SDS011;40046;53.254;5.900;2023-12-20T05:46:05;31.80;;;6.05;;
54139;SDS011;40046;53.254;5.900;2023-12-20T05:48:31;31.50;;;5.80;;
54139;SDS011;40046;53.254;5.900;2023-12-20T05:50:57;28.23;;;5.25;;
54139;SDS011;40046;53.254;5.900;2023-12-20T05:53:23;26.88;;;4.65;;
54139;SDS011;40046;53.254;5.900;2023-12-20T05:55:49;26.48;;;4.80;;
54139;SDS011;40046;53.254;5.900;2023-12-20T05:58:15;28.48;;;6.03;;
54139;SDS011;40046;53.254;5.900;2023-12-20T06:00:42;32.65;;;5.70;;
54139;SDS011;40046;53.254;5.900;2023-12-20T06:03:08;29.65;;;5.97;;
54139;SDS011;40046;53.254;5.900;2023-12-20T06:05:34;27.00;;;4.50;;
54139;SDS011;40046;53.254;5.900;2023-12-20T06:08:00;32.20;;;6.93;;
54139;SDS011;40046;53.254;5.900;2023-12-20T06:10:28;25.50;;;5.57;;
54139;SDS011;40046;53.254;5.900;2023-12-20T06:12:54;23.55;;;5.20;;
54139;SDS011;40046;53.254;5.900;2023-12-20T06:15:21;34.70;;;7.00;;
54139;SDS011;40046;53.254;5.900;2023-12-20T06:17:48;39.83;;;8.02;;
54139;SDS011;40046;53.254;5.900;2023-12-20T06:20:15;32.63;;;5.90;;
54139;SDS011;40046;53.254;5.900;2023-12-20T06:22:41;35.60;;;6.25;;
54139;SDS011;40046;53.254;5.900;2023-12-20T06:25:07;29.67;;;6.32;;
54139;SDS011;40046;53.254;5.900;2023-12-20T06:27:34;31.17;;;5.65;;
54139;SDS011;40046;53.254;5.900;2023-12-20T06:30:00;24.33;;;4.45;;
54139;SDS011;40046;53.254;5.900;2023-12-20T06:32:26;27.02;;;5.45;;
54139;SDS011;40046;53.254;5.900;2023-12-20T06:34:54;30.13;;;6.80;;
54139;SDS011;40046;53.254;5.900;2023-12-20T06:37:20;26.30;;;5.55;;
54139;SDS011;40046;53.254;5.900;2023-12-20T06:39:46;33.50;;;5.55;;
54139;SDS011;40046;53.254;5.900;2023-12-20T06:42:12;34.38;;;6.22;;
54139;SDS011;40046;53.254;5.900;2023-12-20T06:44:38;27.42;;;6.10;;
54139;SDS011;40046;53.254;5.900;2023-12-20T06:47:05;31.15;;;6.68;;
54139;SDS011;40046;53.254;5.900;2023-12-20T06:49:31;22.23;;;5.00;;
54139;SDS011;40046;53.254;5.900;2023-12-20T06:51:57;29.15;;;5.68;;
54139;SDS011;40046;53.254;5.900;2023-12-20T06:54:23;39.13;;;8.18;;
54139;SDS011;40046;53.254;5.900;2023-12-20T06:56:49;33.83;;;5.50;;
54139;SDS011;40046;53.254;5.900;2023-12-20T06:59:15;31.92;;;8.00;;
54139;SDS011;40046;53.254;5.900;2023-12-20T07:01:41;29.80;;;5.97;;
54139;SDS011;40046;53.254;5.900;2023-12-20T07:04:08;24.35;;;5.97;;
54139;SDS011;40046;53.254;5.900;2023-12-20T07:06:34;35.50;;;5.68;;
54139;SDS011;40046;53.254;5.900;2023-12-20T07:09:00;29.30;;;6.25;;
54139;SDS011;40046;53.254;5.900;2023-12-20T07:11:26;22.48;;;4.90;;
54139;SDS011;40046;53.254;5.900;2023-12-20T07:13:52;40.13;;;8.05;;
54139;SDS011;40046;53.254;5.900;2023-12-20T07:16:18;27.02;;;5.47;;
54139;SDS011;40046;53.254;5.900;2023-12-20T07:18:45;28.85;;;4.50;;
54139;SDS011;40046;53.254;5.900;2023-12-20T07:21:11;24.17;;;5.70;;
54139;SDS011;40046;53.254;5.900;2023-12-20T07:23:37;28.85;;;5.88;;
54139;SDS011;40046;53.254;5.900;2023-12-20T07:26:03;39.63;;;6.22;;
54139;SDS011;40046;53.254;5.900;2023-12-20T07:28:29;36.53;;;9.50;;
54139;SDS011;40046;53.254;5.900;2023-12-20T07:30:55;32.80;;;7.13;;
54139;SDS011;40046;53.254;5.900;2023-12-20T07:33:21;33.00;;;6.15;;
54139;SDS011;40046;53.254;5.900;2023-12-20T07:35:48;31.52;;;6.07;;
54139;SDS011;40046;53.254;5.900;2023-12-20T07:38:14;27.85;;;6.60;;
54139;SDS011;40046;53.254;5.900;2023-12-20T07:40:40;34.55;;;5.43;;
54139;SDS011;40046;53.254;5.900;2023-12-20T07:43:06;30.63;;;6.03;;
54139;SDS011;40046;53.254;5.900;2023-12-20T07:45:32;33.35;;;5.55;;
54139;SDS011;40046;53.254;5.900;2023-12-20T07:47:58;26.83;;;7.47;;
54139;SDS011;40046;53.254;5.900;2023-12-20T07:50:25;34.30;;;8.02;;
54139;SDS011;40046;53.254;5.900;2023-12-20T07:52:51;28.98;;;5.25;;
54139;SDS011;40046;53.254;5.900;2023-12-20T07:55:18;34.08;;;7.38;;
54139;SDS011;40046;53.254;5.900;2023-12-20T07:57:44;24.35;;;6.03;;
54139;SDS011;40046;53.254;5.900;2023-12-20T08:00:10;22.90;;;4.03;;
54139;SDS011;40046;53.254;5.900;2023-12-20T08:02:37;23.17;;;4.15;;
54139;SDS011;40046;53.254;5.900;2023-12-20T08:05:03;18.83;;;3.72;;
54139;SDS011;40046;53.254;5.900;2023-12-20T08:07:29;21.20;;;3.47;;
54139;SDS011;40046;53.254;5.900;2023-12-20T08:09:55;27.58;;;4.20;;
54139;SDS011;40046;53.254;5.900;2023-12-20T08:12:22;22.77;;;3.97;;
54139;SDS011;40046;53.254;5.900;2023-12-20T08:14:48;22.27;;;4.50;;
54139;SDS011;40046;53.254;5.900;2023-12-20T08:17:14;20.35;;;5.60;;
54139;SDS011;40046;53.254;5.900;2023-12-20T08:19:41;18.88;;;3.47;;
54139;SDS011;40046;53.254;5.900;2023-12-20T08:22:07;26.73;;;5.30;;
54139;SDS011;40046;53.254;5.900;2023-12-20T08:24:33;27.23;;;6.53;;
54139;SDS011;40046;53.254;5.900;2023-12-20T08:27:00;34.53;;;5.43;;
54139;SDS011;40046;53.254;5.900;2023-12-20T08:29:26;30.25;;;6.93;;
54139;SDS011;40046;53.254;5.900;2023-12-20T08:31:52;30.48;;;6.70;;
54139;SDS011;40046;53.254;5.900;2023-12-20T08:34:22;32.97;;;6.40;;
54139;SDS011;40046;53.254;5.900;2023-12-20T08:36:49;32.08;;;6.13;;
54139;SDS011;40046;53.254;5.900;2023-12-20T08:39:16;38.08;;;8.25;;
54139;SDS011;40046;53.254;5.900;2023-12-20T08:41:42;32.03;;;6.60;;
54139;SDS011;40046;53.254;5.900;2023-12-20T08:44:09;28.77;;;6.10;;
54139;SDS011;40046;53.254;5.900;2023-12-20T08:46:35;35.28;;;6.53;;
54139;SDS011;40046;53.254;5.900;2023-12-20T08:49:02;16.55;;;3.78;;
54139;SDS011;40046;53.254;5.900;2023-12-20T08:51:28;13.52;;;1.40;;
54139;SDS011;40046;53.254;5.900;2023-12-20T08:53:54;14.05;;;1.80;;
54139;SDS011;40046;53.254;5.900;2023-12-20T08:56:20;8.85;;;1.80;;
54139;SDS011;40046;53.254;5.900;2023-12-20T08:58:46;12.25;;;1.77;;
54139;SDS011;40046;53.254;5.900;2023-12-20T09:01:13;15.60;;;2.58;;
54139;SDS011;40046;53.254;5.900;2023-12-20T09:03:39;15.50;;;1.77;;
54139;SDS011;40046;53.254;5.900;2023-12-20T09:06:06;23.98;;;3.17;;
54139;SDS011;40046;53.254;5.900;2023-12-20T09:08:32;22.90;;;3.20;;
54139;SDS011;40046;53.254;5.900;2023-12-20T09:10:59;15.18;;;2.60;;
54139;SDS011;40046;53.254;5.900;2023-12-20T09:13:25;13.52;;;2.03;;
54139;SDS011;40046;53.254;5.900;2023-12-20T09:15:56;16.67;;;2.47;;
54139;SDS011;40046;53.254;5.900;2023-12-20T09:18:23;16.30;;;1.98;;
54139;SDS011;40046;53.254;5.900;2023-12-20T09:20:49;19.70;;;3.63;;
54139;SDS011;40046;53.254;5.900;2023-12-20T09:23:15;14.82;;;2.13;;
54139;SDS011;40046;53.254;5.900;2023-12-20T09:25:43;18.92;;;2.80;;
54139;SDS011;40046;53.254;5.900;2023-12-20T09:28:09;13.55;;;2.30;;
54139;SDS011;40046;53.254;5.900;2023-12-20T09:30:35;15.00;;;2.92;;
54139;SDS011;40046;53.254;5.900;2023-12-20T09:33:04;24.83;;;2.45;;
54139;SDS011;40046;53.254;5.900;2023-12-20T09:35:32;16.20;;;2.58;;
54139;SDS011;40046;53.254;5.900;2023-12-20T09:37:58;19.20;;;3.00;;
54139;SDS011;40046;53.254;5.900;2023-12-20T09:40:25;19.27;;;2.28;;
54139;SDS011;40046;53.254;5.900;2023-12-20T09:42:58;10.63;;;2.70;;
54139;SDS011;40046;53.254;5.900;2023-12-20T09:45:28;16.75;;;3.28;;
54139;SDS011;40046;53.254;5.900;2023-12-20T09:47:56;16.38;;;3.50;;
54139;SDS011;40046;53.254;5.900;2023-12-20T09:50:23;19.67;;;2.83;;
54139;SDS011;40046;53.254;5.900;2023-12-20T09:52:50;15.10;;;3.00;;
54139;SDS011;40046;53.254;5.900;2023-12-20T09:55:20;18.58;;;3.60;;
54139;SDS011;40046;53.254;5.900;2023-12-20T09:57:47;8.35;;;2.30;;
54139;SDS011;40046;53.254;5.900;2023-12-20T10:00:13;18.38;;;2.08;;
54139;SDS011;40046;53.254;5.900;2023-12-20T10:02:42;10.90;;;2.90;;
54139;SDS011;40046;53.254;5.900;2023-12-20T10:05:10;12.32;;;1.98;;
54139;SDS011;40046;53.254;5.900;2023-12-20T10:07:41;12.50;;;1.98;;
54139;SDS011;40046;53.254;5.900;2023-12-20T10:10:07;14.27;;;2.75;;
54139;SDS011;40046;53.254;5.900;2023-12-20T10:12:34;16.80;;;2.65;;
54139;SDS011;40046;53.254;5.900;2023-12-20T10:15:00;23.65;;;6.53;;
54139;SDS011;40046;53.254;5.900;2023-12-20T10:17:27;22.05;;;3.72;;
54139;SDS011;40046;53.254;5.900;2023-12-20T10:19:54;16.20;;;3.88;;
54139;SDS011;40046;53.254;5.900;2023-12-20T10:22:21;16.05;;;3.53;;
54139;SDS011;40046;53.254;5.900;2023-12-20T10:24:47;15.40;;;2.97;;
54139;SDS011;40046;53.254;5.900;2023-12-20T10:27:13;20.60;;;3.80;;
54139;SDS011;40046;53.254;5.900;2023-12-20T10:29:39;17.65;;;3.20;;
54139;SDS011;40046;53.254;5.900;2023-12-20T10:34:47;24.15;;;4.28;;
54139;SDS011;40046;53.254;5.900;2023-12-20T10:37:14;20.75;;;3.33;;
54139;SDS011;40046;53.254;5.900;2023-12-20T10:39:40;20.45;;;2.83;;
54139;SDS011;40046;53.254;5.900;2023-12-20T10:42:08;16.15;;;2.88;;
54139;SDS011;40046;53.254;5.900;2023-12-20T10:44:34;20.70;;;3.92;;
54139;SDS011;40046;53.254;5.900;2023-12-20T10:47:00;16.65;;;2.60;;
54139;SDS011;40046;53.254;5.900;2023-12-20T10:49:27;25.13;;;4.13;;
54139;SDS011;40046;53.254;5.900;2023-12-20T10:51:54;20.17;;;3.00;;
54139;SDS011;40046;53.254;5.900;2023-12-20T10:54:22;20.50;;;3.50;;
54139;SDS011;40046;53.254;5.900;2023-12-20T10:56:48;21.55;;;5.38;;
54139;SDS011;40046;53.254;5.900;2023-12-20T10:59:16;21.10;;;3.20;;
54139;SDS011;40046;53.254;5.900;2023-12-20T11:01:45;23.77;;;3.88;;
54139;SDS011;40046;53.254;5.900;2023-12-20T11:04:14;21.10;;;4.88;;
54139;SDS011;40046;53.254;5.900;2023-12-20T11:06:51;15.30;;;2.88;;
54139;SDS011;40046;53.254;5.900;2023-12-20T11:09:22;12.32;;;2.40;;
54139;SDS011;40046;53.254;5.900;2023-12-20T11:12:09;19.05;;;2.97;;
54139;SDS011;40046;53.254;5.900;2023-12-20T11:14:45;18.38;;;2.85;;
54139;SDS011;40046;53.254;5.900;2023-12-20T11:17:12;23.20;;;3.15;;
54139;SDS011;40046;53.254;5.900;2023-12-20T11:22:26;15.70;;;3.13;;
54139;SDS011;40046;53.254;5.900;2023-12-20T11:24:53;12.93;;;2.35;;
54139;SDS011;40046;53.254;5.900;2023-12-20T11:27:21;18.83;;;3.50;;
54139;SDS011;40046;53.254;5.900;2023-12-20T11:29:56;20.45;;;4.70;;
54139;SDS011;40046;53.254;5.900;2023-12-20T11:35:01;10.90;;;3.17;;
54139;SDS011;40046;53.254;5.900;2023-12-20T11:37:42;24.95;;;6.53;;
54139;SDS011;40046;53.254;5.900;2023-12-20T11:40:08;14.25;;;3.33;;
54139;SDS011;40046;53.254;5.900;2023-12-20T11:42:48;22.02;;;3.72;;
54139;SDS011;40046;53.254;5.900;2023-12-20T11:45:15;14.40;;;3.03;;
54139;SDS011;40046;53.254;5.900;2023-12-20T11:47:43;17.85;;;3.80;;
54139;SDS011;40046;53.254;5.900;2023-12-20T11:50:10;17.52;;;3.33;;
54139;SDS011;40046;53.254;5.900;2023-12-20T11:52:36;20.85;;;4.78;;
54139;SDS011;40046;53.254;5.900;2023-12-20T11:55:02;15.23;;;3.35;;
54139;SDS011;40046;53.254;5.900;2023-12-20T11:57:29;17.98;;;3.53;;
54139;SDS011;40046;53.254;5.900;2023-12-20T11:59:55;25.10;;;3.88;;
54139;SDS011;40046;53.254;5.900;2023-12-20T12:02:21;11.50;;;2.72;;
54139;SDS011;40046;53.254;5.900;2023-12-20T12:04:49;14.55;;;3.17;;
54139;SDS011;40046;53.254;5.900;2023-12-20T12:07:18;13.63;;;3.72;;
54139;SDS011;40046;53.254;5.900;2023-12-20T12:09:45;22.38;;;6.45;;
54139;SDS011;40046;53.254;5.900;2023-12-20T12:12:12;18.73;;;5.38;;
54139;SDS011;40046;53.254;5.900;2023-12-20T12:14:38;26.63;;;4.97;;
54139;SDS011;40046;53.254;5.900;2023-12-20T12:17:11;18.08;;;4.22;;
54139;SDS011;40046;53.254;5.900;2023-12-20T12:19:38;18.33;;;3.90;;
54139;SDS011;40046;53.254;5.900;2023-12-20T12:22:05;24.25;;;3.97;;
54139;SDS011;40046;53.254;5.900;2023-12-20T12:24:33;20.70;;;3.38;;
54139;SDS011;40046;53.254;5.900;2023-12-20T12:26:59;19.80;;;3.38;;
54139;SDS011;40046;53.254;5.900;2023-12-20T12:29:26;19.63;;;3.40;;
54139;SDS011;40046;53.254;5.900;2023-12-20T12:31:52;13.48;;;2.90;;
54139;SDS011;40046;53.254;5.900;2023-12-20T12:34:18;15.25;;;3.03;;
54139;SDS011;40046;53.254;5.900;2023-12-20T12:36:44;13.20;;;2.22;;
54139;SDS011;40046;53.254;5.900;2023-12-20T12:39:17;16.70;;;3.53;;
54139;SDS011;40046;53.254;5.900;2023-12-20T12:41:43;11.82;;;2.50;;
54139;SDS011;40046;53.254;5.900;2023-12-20T12:44:10;15.48;;;3.97;;
54139;SDS011;40046;53.254;5.900;2023-12-20T12:46:36;18.42;;;2.85;;
54139;SDS011;40046;53.254;5.900;2023-12-20T12:49:02;19.48;;;3.28;;
54139;SDS011;40046;53.254;5.900;2023-12-20T12:51:29;17.23;;;3.63;;
54139;SDS011;40046;53.254;5.900;2023-12-20T12:53:55;17.92;;;2.33;;
54139;SDS011;40046;53.254;5.900;2023-12-20T12:56:21;13.35;;;2.83;;
54139;SDS011;40046;53.254;5.900;2023-12-20T12:58:48;18.25;;;2.60;;
54139;SDS011;40046;53.254;5.900;2023-12-20T13:01:14;12.52;;;2.70;;
54139;SDS011;40046;53.254;5.900;2023-12-20T13:03:40;13.40;;;1.95;;
54139;SDS011;40046;53.254;5.900;2023-12-20T13:06:07;14.13;;;1.85;;
54139;SDS011;40046;53.254;5.900;2023-12-20T13:08:34;19.73;;;3.28;;
54139;SDS011;40046;53.254;5.900;2023-12-20T13:11:00;10.88;;;2.40;;
54139;SDS011;40046;53.254;5.900;2023-12-20T13:13:29;9.52;;;2.15;;
54139;SDS011;40046;53.254;5.900;2023-12-20T13:15:56;13.13;;;2.33;;
54139;SDS011;40046;53.254;5.900;2023-12-20T13:18:22;8.93;;;2.03;;
54139;SDS011;40046;53.254;5.900;2023-12-20T13:20:48;10.07;;;2.20;;
54139;SDS011;40046;53.254;5.900;2023-12-20T13:23:15;11.10;;;3.20;;
54139;SDS011;40046;53.254;5.900;2023-12-20T13:25:43;10.73;;;2.42;;
54139;SDS011;40046;53.254;5.900;2023-12-20T13:28:10;8.95;;;2.42;;
54139;SDS011;40046;53.254;5.900;2023-12-20T13:30:37;7.78;;;1.20;;
54139;SDS011;40046;53.254;5.900;2023-12-20T13:33:04;9.52;;;1.45;;
54139;SDS011;40046;53.254;5.900;2023-12-20T13:35:30;12.23;;;1.52;;
54139;SDS011;40046;53.254;5.900;2023-12-20T13:37:57;5.75;;;1.40;;
54139;SDS011;40046;53.254;5.900;2023-12-20T13:40:23;9.80;;;2.17;;
54139;SDS011;40046;53.254;5.900;2023-12-20T13:42:49;13.38;;;2.53;;
54139;SDS011;40046;53.254;5.900;2023-12-20T13:45:16;11.50;;;1.90;;
54139;SDS011;40046;53.254;5.900;2023-12-20T13:47:42;15.85;;;1.92;;
54139;SDS011;40046;53.254;5.900;2023-12-20T13:50:08;10.00;;;1.67;;
54139;SDS011;40046;53.254;5.900;2023-12-20T13:52:34;9.57;;;1.67;;
54139;SDS011;40046;53.254;5.900;2023-12-20T13:55:01;11.43;;;1.92;;
54139;SDS011;40046;53.254;5.900;2023-12-20T13:57:27;8.25;;;1.92;;
54139;SDS011;40046;53.254;5.900;2023-12-20T13:59:56;11.93;;;1.52;;
54139;SDS011;40046;53.254;5.900;2023-12-20T14:02:23;6.53;;;1.70;;
54139;SDS011;40046;53.254;5.900;2023-12-20T14:04:49;5.82;;;1.90;;
54139;SDS011;40046;53.254;5.900;2023-12-20T14:07:15;15.55;;;1.80;;
54139;SDS011;40046;53.254;5.900;2023-12-20T14:09:41;13.23;;;1.73;;
54139;SDS011;40046;53.254;5.900;2023-12-20T14:12:11;17.13;;;4.57;;
54139;SDS011;40046;53.254;5.900;2023-12-20T14:14:37;13.07;;;2.80;;
54139;SDS011;40046;53.254;5.900;2023-12-20T14:17:03;12.27;;;2.63;;
54139;SDS011;40046;53.254;5.900;2023-12-20T14:19:31;15.95;;;2.55;;
54139;SDS011;40046;53.254;5.900;2023-12-20T14:21:58;16.42;;;3.35;;
54139;SDS011;40046;53.254;5.900;2023-12-20T14:24:27;14.45;;;2.63;;
54139;SDS011;40046;53.254;5.900;2023-12-20T14:26:53;15.75;;;2.75;;
54139;SDS011;40046;53.254;5.900;2023-12-20T14:29:19;22.70;;;2.97;;
54139;SDS011;40046;53.254;5.900;2023-12-20T14:31:45;15.20;;;3.55;;
54139;SDS011;40046;53.254;5.900;2023-12-20T14:34:11;12.88;;;2.78;;
54139;SDS011;40046;53.254;5.900;2023-12-20T14:36:37;10.57;;;2.47;;
54139;SDS011;40046;53.254;5.900;2023-12-20T14:39:04;15.48;;;2.28;;
54139;SDS011;40046;53.254;5.900;2023-12-20T14:41:30;19.88;;;3.17;;
54139;SDS011;40046;53.254;5.900;2023-12-20T14:43:57;18.15;;;2.90;;